Time;durP1;ratioP1;P1;durP2;ratioP2;P2;SDS_P1;SDS_P2;PMS_P1;PMS_P2;Temp;Humidity;BMP_temperature;BMP_pressure;BME280_temperature;BME280_humidity;BME280_pressure;Samples;Min_cycle;Max_cycle;Signal;HPM_P1;HPM_P2
2021/03/28 06:18:50;;;;;;;20.10;5.18;;;7.40;99.90;;;;;;5147537;27;20386;-94
2021/03/28 06:21:48;;;;;;;20.23;4.57;;;7.40;99.90;;;;;;5103267;27;20469;-93
2021/03/28 06:25:07;;;;;;;26.08;4.30;;;7.50;99.90;;;;;;5096988;28;20052;-93
2021/03/28 06:27:42;;;;;;;25.02;5.07;;;7.50;99.90;;;;;;4972272;28;20050;-91
2021/03/28 06:30:44;;;;;;;17.20;4.57;;;7.60;99.90;;;;;;5054601;28;20087;-93
2021/03/28 06:33:48;;;;;;;16.25;4.47;;;7.60;99.90;;;;;;5046580;28;20060;-92
2021/03/28 06:36:39;;;;;;;24.48;4.47;;;7.70;99.90;;;;;;5045177;28;20041;-92
2021/03/28 06:39:26;;;;;;;17.15;4.28;;;7.70;99.90;;;;;;5055799;28;20282;-93
2021/03/28 06:42:32;;;;;;;18.92;4.85;;;7.70;99.90;;;;;;5036236;28;20440;-93
2021/03/28 06:45:32;;;;;;;17.85;4.60;;;7.80;99.90;;;;;;4977375;28;20077;-93
2021/03/28 06:48:20;;;;;;;20.55;4.03;;;7.80;99.90;;;;;;5062703;28;20044;-91
2021/03/28 06:51:17;;;;;;;23.33;4.90;;;7.80;99.90;;;;;;5049110;28;20509;-91
2021/03/28 06:54:01;;;;;;;13.48;3.60;;;7.80;99.90;;;;;;5061859;28;20044;-93
2021/03/28 06:56:27;;;;;;;14.73;4.20;;;7.80;99.90;;;;;;5043237;28;20047;-92
2021/03/28 06:59:12;;;;;;;21.80;4.50;;;7.80;99.90;;;;;;5027902;28;20490;-86
2021/03/28 07:01:51;;;;;;;16.92;4.97;;;7.80;99.90;;;;;;5069308;28;20139;-94
2021/03/28 07:04:46;;;;;;;18.67;4.70;;;7.80;99.90;;;;;;5063284;28;20090;-91
2021/03/28 07:07:47;;;;;;;14.88;4.00;;;7.90;99.90;;;;;;5075528;28;20245;-92
2021/03/28 07:10:51;;;;;;;20.73;4.57;;;7.90;99.90;;;;;;5033160;28;20045;-92
2021/03/28 07:13:41;;;;;;;16.77;3.95;;;7.90;99.90;;;;;;5045541;28;20044;-93
2021/03/28 07:16:38;;;;;;;23.40;4.70;;;8.00;99.90;;;;;;5046717;28;20040;-91
2021/03/28 07:19:32;;;;;;;10.00;3.63;;;8.00;99.90;;;;;;5023747;28;20040;-89
2021/03/28 07:22:38;;;;;;;20.75;4.28;;;8.00;99.90;;;;;;5050186;28;20100;-92
2021/03/28 07:25:36;;;;;;;14.02;4.38;;;8.00;99.90;;;;;;5053916;28;20040;-92
2021/03/28 07:28:39;;;;;;;19.00;4.00;;;8.10;99.90;;;;;;5056324;28;20043;-91
2021/03/28 07:31:27;;;;;;;14.55;3.55;;;8.10;99.90;;;;;;5032819;28;20121;-92
2021/03/28 07:34:32;;;;;;;14.52;3.25;;;8.20;99.90;;;;;;5015181;28;20044;-92
2021/03/28 07:37:25;;;;;;;19.42;4.05;;;8.20;99.90;;;;;;5038619;28;20045;-93
2021/03/28 07:40:09;;;;;;;12.80;3.67;;;8.20;99.90;;;;;;5043396;28;20048;-92
2021/03/28 07:43:05;;;;;;;14.45;4.18;;;8.30;99.90;;;;;;5041857;28;20041;-93
2021/03/28 07:46:11;;;;;;;19.90;3.72;;;8.40;99.90;;;;;;5037032;28;20124;-92
2021/03/28 07:49:17;;;;;;;19.67;4.60;;;8.50;99.90;;;;;;5035765;28;20468;-93
2021/03/28 07:52:18;;;;;;;16.77;3.83;;;8.70;99.90;;;;;;5029471;28;20053;-87
2021/03/28 07:55:16;;;;;;;14.70;4.60;;;8.70;99.90;;;;;;5029651;28;21772;-89
2021/03/28 07:57:52;;;;;;;15.40;3.38;;;8.70;99.90;;;;;;5026801;28;20045;-91
2021/03/28 08:00:41;;;;;;;16.35;3.55;;;8.90;99.90;;;;;;5040774;28;20072;-90
2021/03/28 08:03:18;;;;;;;16.48;3.50;;;9.10;99.90;;;;;;5033774;28;20040;-86
2021/03/28 08:06:05;;;;;;;18.08;4.45;;;9.00;99.90;;;;;;5044853;28;20132;-89
2021/03/28 08:08:47;;;;;;;13.02;3.45;;;9.10;99.90;;;;;;5041823;28;20365;-92
2021/03/28 08:11:24;;;;;;;18.98;3.80;;;9.20;99.90;;;;;;5035150;28;20062;-92
2021/03/28 08:14:18;;;;;;;18.33;3.42;;;9.20;99.90;;;;;;5030011;28;20417;-92
2021/03/28 08:17:15;;;;;;;17.23;3.30;;;9.40;99.90;;;;;;5044779;28;21088;-93
2021/03/28 08:20:10;;;;;;;15.75;3.75;;;9.40;99.90;;;;;;5041857;28;20132;-92
2021/03/28 08:22:52;;;;;;;20.33;3.97;;;9.60;99.90;;;;;;5039689;28;20056;-93
2021/03/28 08:25:35;;;;;;;13.57;4.03;;;9.70;99.90;;;;;;5023750;28;20056;-92
2021/03/28 08:28:38;;;;;;;12.40;3.60;;;9.80;99.90;;;;;;5032286;28;20038;-92
2021/03/28 08:31:24;;;;;;;12.70;3.05;;;9.80;99.90;;;;;;5031552;28;20046;-93
2021/03/28 08:34:09;;;;;;;17.02;3.50;;;10.00;99.90;;;;;;5038132;28;20537;-94
2021/03/28 08:36:57;;;;;;;15.07;3.30;;;10.10;99.90;;;;;;5026981;28;20120;-93
2021/03/28 08:39:57;;;;;;;11.80;3.60;;;10.20;99.90;;;;;;5028348;28;20033;-91
2021/03/28 08:42:51;;;;;;;20.38;3.53;;;10.30;99.90;;;;;;5044336;28;20048;-91
2021/03/28 08:45:31;;;;;;;15.52;3.03;;;11.00;99.90;;;;;;5033650;28;20069;-93
2021/03/28 08:48:03;;;;;;;15.52;3.50;;;11.40;99.90;;;;;;5046023;28;20045;-93
2021/03/28 08:51:01;;;;;;;9.43;2.83;;;11.60;99.90;;;;;;5023470;28;20048;-88
2021/03/28 08:53:55;;;;;;;13.38;2.63;;;11.40;99.90;;;;;;5022331;28;20064;-86
2021/03/28 08:56:50;;;;;;;12.95;3.10;;;11.00;99.90;;;;;;5030850;28;20029;-87
2021/03/28 08:59:35;;;;;;;19.45;3.50;;;11.10;99.90;;;;;;5037945;28;20256;-92
2021/03/28 09:02:18;;;;;;;16.67;3.50;;;10.60;99.90;;;;;;5026293;28;20037;-92
2021/03/28 09:04:46;;;;;;;12.00;3.75;;;10.50;99.90;;;;;;5026652;28;20077;-92
2021/03/28 09:07:30;;;;;;;16.42;3.60;;;10.30;99.90;;;;;;5009774;28;20075;-92
2021/03/28 09:10:15;;;;;;;14.48;3.17;;;10.30;99.90;;;;;;5046766;28;20052;-91
2021/03/28 09:13:09;;;;;;;13.55;3.08;;;10.30;99.90;;;;;;5029508;28;20064;-93
2021/03/28 09:16:08;;;;;;;17.25;3.25;;;10.20;99.90;;;;;;5024396;28;20068;-92
2021/03/28 09:18:55;;;;;;;13.35;2.90;;;10.20;99.90;;;;;;5023980;28;20080;-94
2021/03/28 09:21:44;;;;;;;15.80;3.33;;;10.10;99.90;;;;;;5008845;28;20404;-91
2021/03/28 09:24:16;;;;;;;15.20;3.03;;;10.10;99.90;;;;;;5025734;28;20053;-93
2021/03/28 09:26:55;;;;;;;13.05;2.95;;;10.20;99.90;;;;;;5027815;28;20045;-94
2021/03/28 09:29:35;;;;;;;15.80;3.17;;;10.10;99.90;;;;;;5033523;28;20041;-92
2021/03/28 09:32:20;;;;;;;13.90;2.75;;;10.10;99.90;;;;;;5011678;28;20094;-94
2021/03/28 09:35:17;;;;;;;15.50;3.13;;;10.00;99.90;;;;;;5015740;28;20454;-94
2021/03/28 09:37:54;;;;;;;9.25;2.20;;;9.90;99.90;;;;;;5035752;28;20066;-94
2021/03/28 09:40:44;;;;;;;16.27;4.22;;;9.80;99.90;;;;;;5027160;28;20057;-92
2021/03/28 09:43:15;;;;;;;11.13;3.53;;;9.80;99.90;;;;;;5024022;28;20045;-93
2021/03/28 09:46:15;;;;;;;18.25;3.45;;;9.80;99.90;;;;;;5030398;28;20137;-92
2021/03/28 09:48:52;;;;;;;22.92;4.50;;;9.80;99.90;;;;;;5023548;28;20052;-94
2021/03/28 09:51:39;;;;;;;16.50;3.95;;;9.70;99.90;;;;;;5011301;28;20076;-93
2021/03/28 09:54:26;;;;;;;17.38;3.83;;;9.70;99.90;;;;;;5042184;28;20184;-91
2021/03/28 09:57:17;;;;;;;15.32;3.17;;;9.60;99.90;;;;;;5009169;28;20045;-91
2021/03/28 09:59:57;;;;;;;15.43;3.72;;;9.60;99.90;;;;;;5030388;28;20049;-92
2021/03/28 10:02:31;;;;;;;16.83;4.13;;;9.70;99.90;;;;;;5021133;28;20115;-93
2021/03/28 10:05:22;;;;;;;19.00;3.85;;;9.60;99.90;;;;;;5028203;28;20037;-93
2021/03/28 10:08:05;;;;;;;18.42;4.05;;;9.60;99.90;;;;;;5037784;28;20048;-94
2021/03/28 10:10:38;;;;;;;15.57;4.97;;;9.50;99.90;;;;;;5033431;28;20274;-94
2021/03/28 10:13:13;;;;;;;;;;;9.50;99.90;;;;;;5014298;28;20041;-93
2021/03/28 10:16:01;;;;;;;15.85;4.07;;;9.50;99.90;;;;;;5021679;28;19932;-93
2021/03/28 10:18:51;;;;;;;22.80;6.10;;;9.50;99.90;;;;;;5020893;28;20316;-94
2021/03/28 10:21:41;;;;;;;30.98;5.78;;;9.50;99.90;;;;;;5008139;28;20055;-93
2021/03/28 10:24:07;;;;;;;14.43;3.90;;;9.50;99.90;;;;;;5016489;28;20402;-92
2021/03/28 10:27:08;;;;;;;22.52;4.47;;;9.40;99.90;;;;;;5026730;28;20056;-93
2021/03/28 10:29:52;;;;;;;20.45;4.22;;;9.40;99.90;;;;;;5037661;28;20698;-93
2021/03/28 10:32:50;;;;;;;15.20;3.20;;;9.30;99.90;;;;;;5009368;28;20072;-93
2021/03/28 10:35:40;;;;;;;16.80;3.75;;;9.20;99.90;;;;;;5008114;28;20083;-92
2021/03/28 10:38:36;;;;;;;23.10;4.82;;;9.10;99.90;;;;;;5027758;28;20048;-92
2021/03/28 10:41:44;;;;;;;23.70;4.70;;;9.10;99.90;;;;;;5017256;28;20046;-95
2021/03/28 10:44:34;;;;;;;30.00;5.10;;;9.10;99.90;;;;;;5012398;28;20068;-93
2021/03/28 10:47:21;;;;;;;21.85;4.63;;;9.00;99.90;;;;;;5008864;28;20141;-94
2021/03/28 10:49:57;;;;;;;24.67;4.40;;;9.00;99.90;;;;;;5021952;28;20037;-94
2021/03/28 10:53:05;;;;;;;17.55;4.00;;;9.00;99.90;;;;;;5014498;28;20060;-93
2021/03/28 10:56:00;;;;;;;22.70;4.80;;;8.90;99.90;;;;;;5012752;28;20060;-93
2021/03/28 10:58:38;;;;;;;19.65;5.00;;;8.90;99.90;;;;;;5020096;28;20045;-91
2021/03/28 11:01:22;;;;;;;14.15;4.30;;;8.80;99.90;;;;;;5028383;28;20044;-94
2021/03/28 11:04:36;;;;;;;22.73;5.05;;;8.80;99.90;;;;;;5008687;28;20088;-91
2021/03/28 11:08:01;;;;;;;23.27;4.60;;;8.80;99.90;;;;;;5029008;28;20051;-93
2021/03/28 11:11:05;;;;;;;26.00;5.45;;;8.80;99.90;;;;;;4979156;28;20041;-91
2021/03/28 11:14:08;;;;;;;30.77;5.60;;;8.70;99.90;;;;;;5040889;28;20037;-92
2021/03/28 11:17:12;;;;;;;23.38;5.95;;;8.70;99.90;;;;;;5026316;28;20053;-91
2021/03/28 11:19:59;;;;;;;28.63;5.07;;;8.60;99.90;;;;;;5053580;28;20052;-91
2021/03/28 11:22:46;;;;;;;30.30;6.30;;;8.60;99.90;;;;;;5037204;28;20513;-90
2021/03/28 11:25:22;;;;;;;28.50;6.32;;;8.50;99.90;;;;;;5036318;28;20045;-90
2021/03/28 11:27:54;;;;;;;24.85;6.00;;;8.60;99.90;;;;;;5037178;28;20044;-91
2021/03/28 11:30:38;;;;;;;26.83;5.18;;;8.50;99.90;;;;;;5019217;28;20109;-91
2021/03/28 11:33:33;;;;;;;35.40;6.13;;;8.60;99.90;;;;;;5032297;28;20462;-91
2021/03/28 11:36:11;;;;;;;31.27;7.03;;;8.60;99.90;;;;;;5025446;28;20041;-91
2021/03/28 11:38:42;;;;;;;29.70;5.93;;;8.60;99.90;;;;;;5032338;28;20044;-92
2021/03/28 11:41:11;;;;;;;33.40;6.18;;;8.60;99.90;;;;;;5045031;28;20051;-92
2021/03/28 11:43:48;;;;;;;24.52;5.13;;;8.70;99.90;;;;;;5034468;28;20048;-91
2021/03/28 11:46:34;;;;;;;33.42;6.25;;;8.70;99.90;;;;;;5043651;28;20040;-92
2021/03/28 11:49:00;;;;;;;35.28;6.65;;;8.70;99.90;;;;;;5044617;28;20068;-91
2021/03/28 11:51:42;;;;;;;20.65;6.30;;;8.70;99.90;;;;;;5037973;28;20052;-91
2021/03/28 11:54:11;;;;;;;27.40;6.53;;;8.70;99.90;;;;;;5037318;28;20160;-90
2021/03/28 11:57:05;;;;;;;26.25;5.10;;;8.90;99.90;;;;;;5044053;28;20546;-92
2021/03/28 11:59:50;;;;;;;26.02;7.53;;;8.90;99.90;;;;;;5054195;28;20042;-92
2021/03/28 12:02:23;;;;;;;34.20;5.75;;;9.00;99.90;;;;;;5048040;28;20045;-92
2021/03/28 12:05:10;;;;;;;38.85;6.72;;;9.00;99.90;;;;;;5049509;28;20432;-92
2021/03/28 12:07:41;;;;;;;24.67;5.65;;;9.00;99.90;;;;;;5039322;28;20094;-92
2021/03/28 12:10:07;;;;;;;31.23;6.22;;;9.10;99.90;;;;;;5045285;28;20486;-92
2021/03/28 12:12:50;;;;;;;26.85;6.00;;;9.10;99.90;;;;;;5032052;28;20102;-92
2021/03/28 12:15:47;;;;;;;34.00;6.75;;;9.10;99.90;;;;;;5042657;28;20083;-91
2021/03/28 12:18:40;;;;;;;24.15;5.13;;;9.20;99.90;;;;;;5063428;28;20081;-92
2021/03/28 12:21:08;;;;;;;27.33;5.68;;;9.30;99.90;;;;;;5039257;28;20037;-91
2021/03/28 12:23:41;;;;;;;22.58;5.25;;;9.30;99.90;;;;;;5032028;28;20466;-93
2021/03/28 12:26:10;;;;;;;;;;;9.40;99.90;;;;;;5035378;28;20538;-91
2021/03/28 12:28:46;;;;;;;30.05;5.32;;;9.40;99.90;;;;;;5023152;28;19924;-93
2021/03/28 12:31:32;;;;;;;28.45;5.90;;;9.50;99.90;;;;;;5053786;28;20036;-93
2021/03/28 12:34:25;;;;;;;26.83;4.82;;;9.50;99.90;;;;;;5040233;28;20037;-94
2021/03/28 12:36:53;;;;;;;;;;;9.50;99.90;;;;;;5030569;28;20041;-93
2021/03/28 12:39:31;;;;;;;28.75;5.80;;;9.50;99.90;;;;;;5029306;28;19921;-94
2021/03/28 12:42:17;;;;;;;30.13;5.57;;;9.70;99.90;;;;;;5021638;28;20053;-92
2021/03/28 12:45:03;;;;;;;33.97;6.28;;;9.70;99.90;;;;;;5014568;28;20049;-93
2021/03/28 12:47:30;;;;;;;34.10;6.72;;;9.70;99.90;;;;;;5028337;28;20075;-93
2021/03/28 12:50:13;;;;;;;35.35;5.47;;;9.80;99.90;;;;;;5047946;28;20106;-95
2021/03/28 12:52:46;;;;;;;;;;;9.80;99.90;;;;;;5025046;28;20118;-92
2021/03/28 12:55:24;;;;;;;30.30;5.60;;;9.80;99.90;;;;;;5022686;28;20023;-92
2021/03/28 12:57:56;;;;;;;33.00;5.68;;;9.90;99.90;;;;;;5013647;28;20305;-94
2021/03/28 13:00:40;;;;;;;35.15;6.40;;;9.80;99.90;;;;;;5021906;28;20235;-94
2021/03/28 13:03:25;;;;;;;31.65;6.05;;;9.80;99.90;;;;;;5012779;28;20056;-93
2021/03/28 13:06:16;;;;;;;33.60;7.07;;;9.80;99.90;;;;;;5016362;28;20045;-94
2021/03/28 13:08:49;;;;;;;35.88;6.90;;;9.90;99.90;;;;;;5029157;28;20045;-91
2021/03/28 13:11:15;;;;;;;38.05;6.55;;;9.90;99.90;;;;;;5018299;28;20571;-93
2021/03/28 13:13:47;;;;;;;30.27;6.43;;;9.90;99.90;;;;;;5034334;28;20095;-92
2021/03/28 13:16:30;;;;;;;27.60;6.22;;;10.00;99.90;;;;;;5034439;28;20055;-95
2021/03/28 13:19:00;;;;;;;23.90;5.85;;;10.00;99.90;;;;;;5042609;28;20048;-91
2021/03/28 13:21:35;;;;;;;33.58;6.35;;;10.00;99.90;;;;;;5047613;28;20533;-92
2021/03/28 13:24:15;;;;;;;25.17;5.50;;;10.10;99.90;;;;;;5028470;28;20077;-92
2021/03/28 13:27:11;;;;;;;30.48;5.25;;;10.10;99.90;;;;;;5020216;28;20037;-93
2021/03/28 13:29:49;;;;;;;33.72;6.68;;;10.20;99.90;;;;;;5043085;28;20509;-93
2021/03/28 13:32:33;;;;;;;31.58;5.75;;;10.30;99.90;;;;;;5011977;28;20521;-92
2021/03/28 13:35:01;;;;;;;29.95;6.03;;;10.40;99.90;;;;;;5011352;28;20537;-95
2021/03/28 13:37:48;;;;;;;28.85;6.45;;;10.30;99.90;;;;;;5022798;28;20515;-94
2021/03/28 13:40:22;;;;;;;27.40;7.00;;;10.60;99.90;;;;;;5047132;28;20044;-95
2021/03/28 13:43:28;;;;;;;32.50;5.35;;;10.40;99.90;;;;;;5021260;28;20132;-94
2021/03/28 13:46:09;;;;;;;33.10;6.15;;;10.40;99.90;;;;;;5026389;28;20075;-93
2021/03/28 13:48:35;;;;;;;27.55;5.43;;;10.50;99.90;;;;;;5016880;28;20049;-94
2021/03/28 13:51:24;;;;;;;32.95;7.03;;;10.40;99.90;;;;;;5030742;28;20037;-94
2021/03/28 13:53:53;;;;;;;28.30;6.38;;;10.40;99.90;;;;;;5031500;28;20482;-92
2021/03/28 13:56:21;;;;;;;39.97;6.05;;;10.40;99.90;;;;;;5042480;28;20040;-94
2021/03/28 13:59:03;;;;;;;28.88;6.70;;;10.40;99.90;;;;;;5050774;28;20063;-95
2021/03/28 14:01:40;;;;;;;36.88;6.88;;;10.40;99.90;;;;;;5030075;28;20091;-94
2021/03/28 14:04:22;;;;;;;27.13;5.35;;;10.40;99.90;;;;;;5039674;28;20412;-94
2021/03/28 14:07:13;;;;;;;28.10;5.38;;;10.30;99.90;;;;;;5048677;28;20044;-93
2021/03/28 14:09:43;;;;;;;29.50;7.05;;;10.40;99.90;;;;;;5043138;28;20037;-94
2021/03/28 14:12:53;;;;;;;25.92;5.45;;;10.20;99.90;;;;;;5048365;28;20043;-91
2021/03/28 14:15:28;;;;;;;36.10;6.13;;;10.30;99.90;;;;;;5019861;28;20060;-92
2021/03/28 14:18:16;;;;;;;39.55;6.00;;;10.20;99.90;;;;;;5041271;28;20092;-94
2021/03/28 14:21:07;;;;;;;35.08;6.53;;;10.20;99.90;;;;;;5014627;28;20056;-93
2021/03/28 14:23:33;;;;;;;31.73;7.03;;;10.30;99.90;;;;;;5018512;28;20056;-94
2021/03/28 14:26:02;;;;;;;25.50;5.40;;;10.30;99.90;;;;;;5032541;28;20036;-95
2021/03/28 14:28:28;;;;;;;31.58;6.40;;;10.20;99.90;;;;;;5035371;28;20279;-94
2021/03/28 14:31:10;;;;;;;28.13;6.90;;;10.30;99.90;;;;;;5034309;28;20048;-93
2021/03/28 14:33:55;;;;;;;27.38;4.75;;;10.20;99.90;;;;;;5043307;28;20136;-93
2021/03/28 14:37:11;;;;;;;31.50;6.45;;;10.10;99.90;;;;;;5024257;28;20406;-94
2021/03/28 14:39:59;;;;;;;30.23;7.28;;;10.10;99.90;;;;;;5018535;28;20045;-92
2021/03/28 14:42:27;;;;;;;37.35;5.82;;;10.10;99.90;;;;;;5045712;28;20032;-95
2021/03/28 14:45:07;;;;;;;28.60;6.25;;;10.20;99.90;;;;;;5035019;28;20055;-95
2021/03/28 14:47:52;;;;;;;33.42;6.90;;;10.00;99.90;;;;;;5024123;28;20112;-93
2021/03/28 14:50:43;;;;;;;35.10;7.55;;;10.10;99.90;;;;;;5030920;28;20044;-95
2021/03/28 14:53:36;;;;;;;38.38;6.03;;;10.00;99.90;;;;;;5027955;28;20044;-93
2021/03/28 14:56:30;;;;;;;26.92;6.07;;;10.00;99.90;;;;;;5015121;28;20048;-93
2021/03/28 14:59:14;;;;;;;32.17;6.88;;;10.00;99.90;;;;;;5049279;28;20056;-95
2021/03/28 15:02:02;;;;;;;33.45;6.22;;;9.80;99.90;;;;;;5022600;28;20044;-95
2021/03/28 15:04:53;;;;;;;40.67;6.63;;;9.80;99.90;;;;;;5039245;28;20040;-94
2021/03/28 15:07:46;;;;;;;29.98;6.63;;;9.80;99.90;;;;;;5040294;28;20053;-92
2021/03/28 15:10:35;;;;;;;38.78;7.03;;;9.80;99.90;;;;;;5023607;28;20052;-94
2021/03/28 15:13:04;;;;;;;30.77;8.23;;;9.80;99.90;;;;;;5049303;28;20532;-92
2021/03/28 15:16:14;;;;;;;42.55;5.70;;;9.70;99.90;;;;;;5049014;28;20047;-94
2021/03/28 15:18:57;;;;;;;34.85;7.25;;;9.70;99.90;;;;;;5052961;28;20052;-95
2021/03/28 15:21:47;;;;;;;34.70;5.03;;;9.70;99.90;;;;;;5057750;28;20091;-89
2021/03/28 15:24:18;;;;;;;35.78;6.72;;;9.70;99.90;;;;;;5050111;28;20132;-93
2021/03/28 15:27:15;;;;;;;29.88;5.53;;;9.60;99.90;;;;;;5043076;28;20388;-93
2021/03/28 15:29:51;;;;;;;37.38;6.97;;;9.40;99.90;;;;;;5046612;28;20045;-94
2021/03/28 15:32:47;;;;;;;38.30;7.50;;;9.30;99.90;;;;;;5013710;28;20049;-94
2021/03/28 15:35:53;;;;;;;39.90;6.20;;;9.30;99.90;;;;;;5039752;28;20045;-94
2021/03/28 15:38:45;;;;;;;31.63;6.50;;;9.30;99.90;;;;;;5012463;28;20046;-94
2021/03/28 15:41:33;;;;;;;38.80;6.45;;;9.40;99.90;;;;;;5013039;28;20387;-95
2021/03/28 15:44:16;;;;;;;29.92;5.75;;;9.30;99.90;;;;;;5013082;28;20076;-95
2021/03/28 15:47:06;;;;;;;48.58;7.57;;;9.30;99.90;;;;;;5030336;28;20045;-92
2021/03/28 15:49:32;;;;;;;45.28;6.20;;;9.30;99.90;;;;;;5051986;28;20047;-93
2021/03/28 15:52:23;;;;;;;33.75;7.25;;;9.20;99.90;;;;;;5035823;28;20052;-94
2021/03/28 15:55:13;;;;;;;43.40;6.85;;;9.30;99.90;;;;;;4997648;28;20053;-94
2021/03/28 15:58:10;;;;;;;33.10;7.30;;;9.30;99.90;;;;;;5028443;28;20041;-93
2021/03/28 16:00:48;;;;;;;43.30;8.38;;;9.30;99.90;;;;;;5032901;28;20049;-93
2021/03/28 16:03:38;;;;;;;27.45;6.20;;;9.40;99.90;;;;;;5035127;28;20068;-93
2021/03/28 16:06:29;;;;;;;33.92;6.25;;;9.40;99.90;;;;;;5033156;28;20482;-94
2021/03/28 16:09:07;;;;;;;33.25;7.15;;;9.40;99.90;;;;;;5031511;28;20048;-95
2021/03/28 16:12:14;;;;;;;40.85;6.22;;;9.50;99.90;;;;;;5030930;28;20068;-93
2021/03/28 16:14:52;;;;;;;41.55;6.70;;;9.60;99.90;;;;;;5049187;28;20048;-91
2021/03/28 16:17:36;;;;;;;40.72;7.25;;;9.50;99.90;;;;;;5043443;28;20469;-91
2021/03/28 16:20:02;;;;;;;28.48;5.72;;;9.60;99.90;;;;;;5045552;28;20079;-93
2021/03/28 16:23:05;;;;;;;24.30;4.95;;;9.50;99.90;;;;;;5046152;28;20073;-93
2021/03/28 16:26:08;;;;;;;33.42;7.25;;;9.50;99.90;;;;;;5030415;28;20485;-93
2021/03/28 16:28:49;;;;;;;39.30;5.78;;;9.40;99.90;;;;;;5044127;28;20040;-95
2021/03/28 16:31:49;;;;;;;41.45;7.50;;;9.40;99.90;;;;;;5045587;28;20045;-93
2021/03/28 16:34:33;;;;;;;;;;;9.30;99.90;;;;;;5031612;28;20121;-93
2021/03/28 16:37:33;;;;;;;31.48;5.90;;;9.20;99.90;;;;;;5033304;28;19927;-93
2021/03/28 16:40:12;;;;;;;34.40;6.90;;;9.10;99.90;;;;;;5036493;28;20041;-94
2021/03/28 16:42:48;;;;;;;43.38;7.70;;;9.00;99.90;;;;;;5061919;28;20110;-92
2021/03/28 16:45:29;;;;;;;47.47;8.93;;;9.00;99.90;;;;;;5046297;28;20041;-93
2021/03/28 16:48:10;;;;;;;35.80;5.53;;;8.90;99.90;;;;;;5028220;28;20148;-94
2021/03/28 16:50:47;;;;;;;34.50;7.00;;;9.00;99.90;;;;;;5044557;28;20041;-95
2021/03/28 16:53:14;;;;;;;35.03;6.70;;;8.90;99.90;;;;;;5025086;28;20059;-93
2021/03/28 16:55:50;;;;;;;35.75;6.05;;;8.90;99.90;;;;;;5032606;28;20036;-93
2021/03/28 16:58:50;;;;;;;40.20;8.65;;;8.90;99.90;;;;;;5044469;28;20052;-94
2021/03/28 17:01:25;;;;;;;32.63;6.43;;;8.90;99.90;;;;;;5045403;28;20037;-93
2021/03/28 17:04:02;;;;;;;45.45;6.38;;;8.90;99.90;;;;;;5027602;28;20422;-93
2021/03/28 17:06:30;;;;;;;29.30;6.35;;;8.90;99.90;;;;;;5009604;28;20060;-93
2021/03/28 17:09:19;;;;;;;42.50;8.23;;;8.90;99.90;;;;;;5028822;28;20163;-94
2021/03/28 17:12:04;;;;;;;31.45;6.68;;;9.00;99.90;;;;;;5041419;28;20097;-94
2021/03/28 17:14:55;;;;;;;36.08;7.35;;;8.90;99.90;;;;;;5047128;28;20582;-93
2021/03/28 17:17:39;;;;;;;29.42;6.00;;;9.00;99.90;;;;;;5018565;28;20056;-94
2021/03/28 17:20:18;;;;;;;34.90;6.75;;;9.00;99.90;;;;;;5004974;28;20136;-94
2021/03/28 17:22:52;;;;;;;37.72;6.35;;;9.00;99.90;;;;;;4990298;28;20700;-94
2021/03/28 17:25:20;;;;;;;40.25;7.07;;;9.10;99.90;;;;;;5006386;28;20049;-94
2021/03/28 17:28:15;;;;;;;32.28;6.45;;;9.10;99.90;;;;;;5026063;28;20366;-93
2021/03/28 17:30:52;;;;;;;36.55;7.20;;;9.10;99.90;;;;;;5019129;28;20050;-93
2021/03/28 17:33:44;;;;;;;30.67;6.07;;;9.10;99.90;;;;;;5011795;28;20483;-93
2021/03/28 17:36:19;;;;;;;32.33;5.60;;;9.10;99.90;;;;;;5006697;28;20053;-92
2021/03/28 17:39:06;;;;;;;35.17;5.47;;;9.10;99.90;;;;;;5026210;28;20060;-94
2021/03/28 17:41:55;;;;;;;40.85;6.80;;;9.20;99.90;;;;;;5012285;28;20046;-92
2021/03/28 17:44:26;;;;;;;33.45;6.70;;;9.10;99.90;;;;;;4997452;28;20069;-95
2021/03/28 17:47:14;;;;;;;34.30;7.20;;;9.20;99.90;;;;;;5012525;28;20041;-94
2021/03/28 17:49:43;;;;;;;31.27;7.43;;;9.10;99.90;;;;;;5004867;28;20178;-91
2021/03/28 17:52:10;;;;;;;34.50;5.78;;;9.10;99.90;;;;;;5006722;28;20476;-93
2021/03/28 17:54:47;;;;;;;32.47;5.30;;;9.10;99.90;;;;;;4994083;28;20061;-93
2021/03/28 17:57:25;;;;;;;34.47;5.63;;;9.10;99.90;;;;;;5008199;28;20052;-91
2021/03/28 17:59:54;;;;;;;34.75;8.00;;;9.10;99.90;;;;;;5024330;28;20044;-92
2021/03/28 18:02:26;;;;;;;33.90;5.85;;;9.10;99.90;;;;;;5032182;28;20029;-92
2021/03/28 18:05:24;;;;;;;36.58;7.85;;;9.10;99.90;;;;;;5007512;28;20142;-92
2021/03/28 18:07:57;;;;;;;23.33;5.93;;;9.10;99.90;;;;;;5006185;28;20076;-90
2021/03/28 18:10:30;;;;;;;33.80;5.80;;;9.10;99.90;;;;;;5008505;28;20074;-93
2021/03/28 18:13:24;;;;;;;31.20;5.93;;;9.10;99.90;;;;;;5007846;28;20183;-94
2021/03/28 18:15:55;;;;;;;30.33;6.72;;;9.10;99.90;;;;;;4993730;28;20050;-93
2021/03/28 18:18:22;;;;;;;28.38;6.20;;;9.20;99.90;;;;;;4994898;28;20053;-92
2021/03/28 18:20:48;;;;;;;45.50;7.13;;;9.10;99.90;;;;;;5027686;28;20037;-93
2021/03/28 18:23:22;;;;;;;33.75;5.95;;;9.10;99.90;;;;;;5037706;28;20108;-94
2021/03/28 18:25:50;;;;;;;31.08;5.90;;;9.00;99.90;;;;;;5011296;28;20440;-92
2021/03/28 18:28:32;;;;;;;28.35;6.30;;;9.00;99.90;;;;;;5022884;28;20053;-93
2021/03/28 18:31:15;;;;;;;37.35;6.85;;;9.00;99.90;;;;;;5007381;28;20045;-94
2021/03/28 18:33:58;;;;;;;32.33;7.30;;;9.00;99.90;;;;;;5025988;28;20107;-93
2021/03/28 18:36:34;;;;;;;29.23;5.03;;;9.00;99.90;;;;;;5022623;28;20045;-92
2021/03/28 18:39:11;;;;;;;36.03;5.95;;;9.00;99.90;;;;;;5035246;28;20056;-93
2021/03/28 18:41:46;;;;;;;37.30;6.13;;;9.00;99.90;;;;;;5043026;28;20458;-93
2021/03/28 18:44:25;;;;;;;31.00;5.63;;;9.00;99.90;;;;;;5022557;28;20048;-95
2021/03/28 18:47:00;;;;;;;44.63;7.85;;;9.00;99.90;;;;;;5024926;28;20046;-95
2021/03/28 18:49:41;;;;;;;34.00;6.63;;;9.00;99.90;;;;;;5023793;28;20064;-94
2021/03/28 18:52:13;;;;;;;29.08;6.97;;;9.00;99.90;;;;;;5017523;28;20045;-93
2021/03/28 18:54:40;;;;;;;29.23;7.35;;;9.10;99.90;;;;;;5023013;28;20047;-93
2021/03/28 18:57:15;;;;;;;32.10;6.82;;;9.10;99.90;;;;;;5007950;28;20096;-94
2021/03/28 18:59:43;;;;;;;31.05;6.85;;;9.10;99.90;;;;;;5011001;28;20098;-94
2021/03/28 19:02:26;;;;;;;30.52;6.85;;;9.10;99.90;;;;;;5010279;28;20544;-94
2021/03/28 19:04:55;;;;;;;;;;;9.10;99.90;;;;;;5010649;28;20135;-94
2021/03/28 19:07:32;;;;;;;32.58;5.95;;;9.10;99.90;;;;;;5008972;28;20007;-91
2021/03/28 19:09:58;;;;;;;24.50;5.30;;;9.10;99.90;;;;;;5026158;28;20136;-92
2021/03/28 19:12:39;;;;;;;25.90;4.53;;;9.20;99.90;;;;;;5030656;28;20061;-93
2021/03/28 19:15:17;;;;;;;28.63;6.32;;;9.20;99.90;;;;;;5047669;28;20124;-95
2021/03/28 19:18:06;;;;;;;28.67;5.55;;;9.20;99.90;;;;;;5018670;28;20069;-94
2021/03/28 19:20:47;;;;;;;33.85;7.05;;;9.20;99.90;;;;;;5054044;28;20046;-93
2021/03/28 19:23:26;;;;;;;26.83;5.72;;;9.20;99.90;;;;;;5034039;28;20047;-92
2021/03/28 19:25:52;;;;;;;31.40;6.22;;;9.20;99.90;;;;;;5048329;28;20036;-92
2021/03/28 19:28:30;;;;;;;29.10;5.82;;;9.20;99.90;;;;;;5038823;28;20068;-94
2021/03/28 19:31:16;;;;;;;24.58;4.63;;;9.10;99.90;;;;;;5039594;28;20069;-93
2021/03/28 19:33:43;;;;;;;23.90;4.10;;;9.10;99.90;;;;;;5013346;28;20044;-94
2021/03/28 19:36:12;;;;;;;29.52;5.30;;;9.10;99.90;;;;;;5014176;28;20094;-92
2021/03/28 19:38:45;;;;;;;31.45;5.70;;;9.20;99.90;;;;;;5029945;28;20068;-92
2021/03/28 19:41:21;;;;;;;24.50;5.47;;;9.20;99.90;;;;;;5043815;28;20520;-92
2021/03/28 19:43:54;;;;;;;26.73;5.55;;;9.20;99.90;;;;;;5034211;28;20048;-92
2021/03/28 19:49:00;;;;;;;27.42;7.15;;;9.20;99.90;;;;;;5032031;28;20181;-93
2021/03/28 19:51:32;;;;;;;21.80;5.35;;;9.20;99.90;;;;;;5033210;28;20045;-93
2021/03/28 19:54:11;;;;;;;32.13;4.25;;;9.20;99.90;;;;;;5031729;28;20052;-94
2021/03/28 19:56:50;;;;;;;28.23;5.07;;;9.20;99.90;;;;;;5014204;28;20064;-93
2021/03/28 19:59:25;;;;;;;30.65;5.93;;;9.20;99.90;;;;;;5034800;28;20098;-93
2021/03/28 20:01:51;;;;;;;20.77;5.55;;;9.20;99.90;;;;;;5031646;28;20404;-94
2021/03/28 20:04:21;;;;;;;26.48;5.93;;;9.10;99.90;;;;;;5019769;28;20060;-95
2021/03/28 20:06:49;;;;;;;26.52;5.68;;;9.10;99.90;;;;;;5018653;28;20106;-93
2021/03/28 20:09:17;;;;;;;24.98;4.78;;;9.20;99.90;;;;;;5012163;28;20045;-93
2021/03/28 20:11:44;;;;;;;24.23;5.30;;;9.20;99.90;;;;;;5023495;28;20036;-93
2021/03/28 20:14:15;;;;;;;21.83;5.28;;;9.20;99.90;;;;;;5031888;28;20037;-92
2021/03/28 20:16:47;;;;;;;26.63;4.55;;;9.20;99.90;;;;;;5013594;28;20044;-95
2021/03/28 20:19:14;;;;;;;33.80;6.73;;;9.20;99.90;;;;;;5018974;28;20079;-95
2021/03/28 20:21:44;;;;;;;22.10;5.03;;;9.20;99.90;;;;;;5031504;28;20156;-93
2021/03/28 20:24:10;;;;;;;20.65;5.38;;;9.20;99.90;;;;;;5045247;28;20035;-94
2021/03/28 20:26:46;;;;;;;27.15;5.50;;;9.20;99.90;;;;;;5027494;28;20082;-94
2021/03/28 20:29:47;;;;;;;22.92;4.97;;;9.20;99.90;;;;;;5047263;28;20053;-94